Time;durP1;ratioP1;P1;durP2;ratioP2;P2;SDS_P1;SDS_P2;PMS_P1;PMS_P2;Temp;Humidity;BMP_temperature;BMP_pressure;BME280_temperature;BME280_humidity;BME280_pressure;Samples;Min_cycle;Max_cycle;Signal;HPM_P1;HPM_P2
2022/10/30 00:00:46;;;;;;;17.83;12.00;;;;;;;7.51;84.34;96354.36;1706659;83;21022;-62
2022/10/30 00:03:16;;;;;;;20.40;11.07;;;;;;;7.52;84.47;96359.17;1711879;83;21071;-62
2022/10/30 00:05:46;;;;;;;16.03;10.30;;;;;;;7.59;84.74;96351.78;1711454;83;21105;-62
2022/10/30 00:08:16;;;;;;;16.20;10.77;;;;;;;7.67;84.44;96345.25;1722394;83;21049;-62
2022/10/30 00:10:44;;;;;;;15.77;10.23;;;;;;;7.69;84.32;96337.81;1712067;83;21033;-62
2022/10/30 00:13:12;;;;;;;16.30;10.23;;;;;;;7.70;83.67;96335.62;1718952;83;21034;-62
2022/10/30 00:15:39;;;;;;;17.83;10.40;;;;;;;7.74;83.99;96339.16;1705303;83;21575;-62
2022/10/30 00:18:06;;;;;;;18.37;11.33;;;;;;;7.80;83.70;96345.30;1712821;83;21088;-62
2022/10/30 00:20:36;;;;;;;13.67;10.33;;;;;;;7.84;83.69;96346.20;1711522;83;21054;-62
2022/10/30 00:23:03;;;;;;;15.17;9.60;;;;;;;7.83;83.26;96350.13;1704675;83;21002;-62
2022/10/30 00:25:29;;;;;;;13.00;8.60;;;;;;;7.73;82.64;96347.89;1714025;83;21124;-62
2022/10/30 00:27:57;;;;;;;11.40;8.30;;;;;;;7.68;82.68;96353.55;1716554;83;21070;-62
2022/10/30 00:30:23;;;;;;;17.80;10.67;;;;;;;7.58;83.28;96345.66;1708712;83;21089;-62
2022/10/30 00:32:50;;;;;;;18.73;12.03;;;;;;;7.55;83.11;96346.05;1714573;83;21033;-62
2022/10/30 00:35:16;;;;;;;22.00;13.73;;;;;;;7.45;82.72;96353.44;1716760;83;21042;-62
2022/10/30 00:37:43;;;;;;;18.43;12.70;;;;;;;7.33;82.63;96344.64;1706918;83;21021;-62
2022/10/30 00:40:14;;;;;;;18.93;11.27;;;;;;;7.28;83.27;96341.11;1711404;83;21637;-62
2022/10/30 00:42:41;;;;;;;9.97;6.47;;;;;;;7.28;83.04;96329.30;1706094;83;21045;-63
2022/10/30 00:45:14;;;;;;;16.77;10.10;;;;;;;7.26;83.08;96336.72;1716262;83;21038;-62
2022/10/30 00:47:55;;;;;;;17.90;10.95;;;;;;;7.23;83.65;96326.17;1700896;83;21073;-62
2022/10/30 00:50:33;;;;;;;29.67;15.17;;;;;;;7.27;83.84;96330.14;1716057;83;21559;-62
2022/10/30 00:53:13;;;;;;;21.27;14.33;;;;;;;7.18;83.33;96334.45;1704095;83;21030;-62
2022/10/30 00:55:56;;;;;;;18.23;10.30;;;;;;;7.11;83.59;96326.55;1708390;83;21077;-62
2022/10/30 00:58:35;;;;;;;16.05;10.25;;;;;;;7.10;83.36;96318.66;1710402;83;21588;-62
2022/10/30 01:01:07;;;;;;;18.93;10.27;;;;;;;7.11;84.44;96323.06;1716732;83;21038;-62
2022/10/30 01:03:36;;;;;;;14.57;8.90;;;;;;;7.03;83.82;96319.08;1706938;83;21594;-63
2022/10/30 01:06:07;;;;;;;12.60;8.90;;;;;;;6.90;83.91;96320.73;1705458;83;21005;-62
2022/10/30 01:08:33;;;;;;;9.67;6.67;;;;;;;6.86;84.58;96317.63;1708595;83;21074;-62
2022/10/30 01:11:03;;;;;;;18.90;10.73;;;;;;;6.80;84.16;96307.52;1711237;83;21120;-62
2022/10/30 01:13:34;;;;;;;22.40;13.60;;;;;;;6.70;84.79;96309.19;1716671;83;21821;-62
2022/10/30 01:16:33;;;;;;;21.93;14.73;;;;;;;6.61;84.49;96303.89;1716775;83;21033;-63
2022/10/30 01:19:30;;;;;;;27.60;19.63;;;;;;;6.60;84.90;96314.81;1683354;83;21524;-62
2022/10/30 01:22:31;;;;;;;15.67;10.20;;;;;;;6.54;84.87;96318.68;1673717;83;21102;-62
2022/10/30 01:25:29;;;;;;;9.70;5.23;;;;;;;6.49;84.40;96315.14;1705084;83;21651;-62
2022/10/30 01:28:28;;;;;;;9.17;5.43;;;;;;;6.49;84.75;96308.58;1710759;83;21054;-61
2022/10/30 01:31:25;;;;;;;6.57;4.10;;;;;;;6.42;85.37;96307.64;1700130;83;21110;-63
2022/10/30 01:34:12;;;;;;;10.20;5.30;;;;;;;6.42;85.03;96310.70;1709548;83;21061;-62
2022/10/30 01:37:02;;;;;;;6.30;4.03;;;;;;;6.43;84.95;96315.09;1706035;83;21058;-62
2022/10/30 01:39:34;;;;;;;27.10;16.47;;;;;;;6.48;84.79;96309.02;1711330;83;21029;-63
2022/10/30 01:42:40;;;;;;;20.10;11.77;;;;;;;6.39;84.87;96303.69;1709473;83;21026;-62
2022/10/30 01:45:08;;;;;;;23.50;13.77;;;;;;;6.36;85.22;96295.80;1712173;83;21065;-62
2022/10/30 01:48:17;;;;;;;15.60;9.90;;;;;;;6.29;85.18;96301.41;1723541;83;21049;-62
2022/10/30 01:51:19;;;;;;;13.13;4.93;;;;;;;6.33;85.44;96298.41;1712693;83;21125;-62
2022/10/30 01:54:10;;;;;;;19.60;11.47;;;;;;;6.39;86.36;96296.27;1718965;83;20991;-62
2022/10/30 01:56:44;;;;;;;22.23;13.40;;;;;;;6.53;86.52;96284.57;1704604;83;21037;-62
2022/10/30 01:59:38;;;;;;;27.57;16.13;;;;;;;6.68;86.32;96279.47;1712897;83;21037;-63
2022/10/30 02:02:07;;;;;;;19.30;13.17;;;;;;;6.75;85.82;96289.56;1704404;83;21532;-62
2022/10/30 02:04:34;;;;;;;18.60;12.53;;;;;;;6.82;85.60;96277.80;1718397;83;21068;-62
2022/10/30 02:07:02;;;;;;;21.37;11.83;;;;;;;6.88;85.19;96270.00;1706610;83;21034;-62
2022/10/30 02:09:30;;;;;;;21.90;11.83;;;;;;;6.98;85.25;96277.91;1705769;83;21152;-62
2022/10/30 02:11:57;;;;;;;18.63;11.07;;;;;;;7.04;85.17;96284.08;1711359;83;21089;-62
2022/10/30 02:14:29;;;;;;;20.43;11.00;;;;;;;7.10;84.69;96284.55;1700750;83;21073;-62
2022/10/30 02:17:00;;;;;;;19.77;10.93;;;;;;;7.20;85.22;96274.98;1726065;83;21077;-62
2022/10/30 02:19:26;;;;;;;17.00;9.77;;;;;;;7.27;85.17;96274.15;1713087;83;21033;-61
2022/10/30 02:21:53;;;;;;;21.73;11.33;;;;;;;7.30;84.41;96273.72;1722575;83;21082;-62
2022/10/30 02:24:20;;;;;;;17.77;9.57;;;;;;;7.31;85.35;96271.55;1707475;83;21099;-62
2022/10/30 02:26:47;;;;;;;16.43;9.73;;;;;;;7.35;85.00;96272.43;1704239;83;21050;-62
2022/10/30 02:29:14;;;;;;;18.97;10.47;;;;;;;7.46;85.37;96272.06;1718296;83;21137;-62
2022/10/30 02:31:41;;;;;;;18.23;11.97;;;;;;;7.49;84.52;96268.58;1707449;83;21074;-62
2022/10/30 02:34:08;;;;;;;22.07;12.70;;;;;;;7.48;84.58;96267.67;1713383;83;21053;-62
2022/10/30 02:36:35;;;;;;;20.13;12.30;;;;;;;7.44;84.32;96270.30;1717295;83;21564;-62
2022/10/30 02:39:02;;;;;;;21.17;10.63;;;;;;;7.47;84.79;96261.12;1710775;83;21009;-62
2022/10/30 02:41:29;;;;;;;15.60;7.30;;;;;;;7.55;85.07;96261.58;1700238;83;21101;-62
2022/10/30 02:43:56;;;;;;;17.27;7.93;;;;;;;7.52;85.49;96260.70;1714477;83;21093;-62
2022/10/30 02:46:22;;;;;;;12.57;7.07;;;;;;;7.48;85.71;96254.98;1717473;83;21070;-62
2022/10/30 02:48:49;;;;;;;11.47;6.57;;;;;;;7.56;85.97;96259.85;1722760;83;21564;-62
2022/10/30 02:51:16;;;;;;;7.97;5.00;;;;;;;7.66;85.93;96260.73;1703736;83;21050;-62
2022/10/30 02:53:46;;;;;;;10.73;6.90;;;;;;;7.65;85.64;96261.63;1710300;83;21034;-62
2022/10/30 02:56:14;;;;;;;11.07;7.23;;;;;;;7.64;85.19;96266.45;1711716;83;21499;-62
2022/10/30 02:58:41;;;;;;;12.00;7.50;;;;;;;7.63;86.30;96258.98;1707550;83;21121;-62
2022/10/30 03:01:13;;;;;;;15.87;6.77;;;;;;;7.70;86.23;96263.38;1717130;83;20990;-62
2022/10/30 03:03:40;;;;;;;12.77;6.83;;;;;;;7.74;86.28;96258.59;1717310;83;21098;-62
2022/10/30 03:06:11;;;;;;;12.17;5.40;;;;;;;7.78;86.20;96252.90;1705712;83;21045;-61
2022/10/30 03:08:38;;;;;;;13.57;6.30;;;;;;;7.79;86.12;96254.23;1717879;83;21029;-62
2022/10/30 03:11:08;;;;;;;10.83;6.80;;;;;;;7.79;86.21;96256.86;1710462;83;21081;-62
2022/10/30 03:13:39;;;;;;;13.43;6.00;;;;;;;7.82;86.15;96257.74;1706818;83;21109;-62
2022/10/30 03:16:10;;;;;;;10.47;5.77;;;;;;;7.84;86.12;96254.25;1703555;83;21044;-62
2022/10/30 03:18:37;;;;;;;17.60;5.73;;;;;;;7.84;85.66;96254.25;1706747;83;21106;-62
2022/10/30 03:21:09;;;;;;;9.87;5.73;;;;;;;7.79;85.88;96251.60;1711814;83;21088;-62
2022/10/30 03:23:37;;;;;;;12.93;5.70;;;;;;;7.77;86.07;96248.53;1706388;83;21535;-63
2022/10/30 03:26:05;;;;;;;8.27;4.93;;;;;;;7.73;86.34;96251.56;1711148;83;21041;-62
2022/10/30 03:28:33;;;;;;;7.30;4.80;;;;;;;7.75;86.19;96255.08;1715051;83;21034;-63
2022/10/30 03:31:07;;;;;;;13.30;4.70;;;;;;;7.80;86.33;96252.03;1713410;83;21041;-62
2022/10/30 03:33:35;;;;;;;7.67;4.20;;;;;;;7.87;86.58;96257.31;1704525;83;21164;-62
2022/10/30 03:36:05;;;;;;;8.53;4.10;;;;;;;7.89;86.40;96262.14;1711548;83;21065;-62
2022/10/30 03:38:32;;;;;;;10.70;4.90;;;;;;;7.96;86.55;96267.42;1713793;83;21038;-62
2022/10/30 03:40:59;;;;;;;11.90;5.43;;;;;;;8.07;86.52;96269.19;1717587;83;21037;-62
2022/10/30 03:43:27;;;;;;;9.57;4.33;;;;;;;8.12;86.13;96260.44;1707523;83;21092;-62
2022/10/30 03:45:56;;;;;;;8.73;4.50;;;;;;;8.17;86.04;96265.70;1705797;83;21033;-62
2022/10/30 03:48:25;;;;;;;11.93;5.27;;;;;;;8.20;85.89;96265.70;1716911;83;21041;-61
2022/10/30 03:50:55;;;;;;;15.40;5.57;;;;;;;8.18;85.92;96272.26;1706483;83;21046;-62
2022/10/30 03:53:25;;;;;;;15.17;6.77;;;;;;;8.17;85.87;96270.96;1706272;83;21033;-62
2022/10/30 03:55:54;;;;;;;16.10;6.23;;;;;;;8.22;86.04;96267.45;1709904;83;21033;-62
2022/10/30 03:58:21;;;;;;;12.43;6.77;;;;;;;8.25;85.60;96275.78;1700122;83;21010;-62
2022/10/30 04:00:47;;;;;;;14.53;6.43;;;;;;;8.27;85.40;96275.36;1705396;83;21887;-62
2022/10/30 04:03:14;;;;;;;16.53;6.50;;;;;;;8.30;85.84;96282.37;1709223;83;21007;-62
2022/10/30 04:05:41;;;;;;;18.87;8.10;;;;;;;8.38;86.11;96272.73;1712150;83;21129;-62
2022/10/30 04:08:12;;;;;;;16.77;8.23;;;;;;;8.39;85.82;96284.98;1706113;83;21061;-62
2022/10/30 04:10:44;;;;;;;21.63;7.57;;;;;;;8.36;85.33;96275.34;1711538;83;21005;-62
2022/10/30 04:13:13;;;;;;;21.03;8.53;;;;;;;8.44;86.20;96276.28;1717046;83;21528;-62
2022/10/30 04:15:42;;;;;;;20.13;9.27;;;;;;;8.51;85.92;96274.52;1704781;83;21520;-62
2022/10/30 04:18:11;;;;;;;22.10;9.27;;;;;;;8.55;86.01;96272.33;1702312;83;21464;-62
2022/10/30 04:20:39;;;;;;;21.63;9.37;;;;;;;8.53;85.48;96275.39;1706455;83;21026;-62
2022/10/30 04:23:08;;;;;;;20.50;9.70;;;;;;;8.51;85.80;96278.91;1716928;83;21061;-62
2022/10/30 04:25:35;;;;;;;19.93;9.00;;;;;;;8.55;85.91;96273.65;1700667;83;21085;-62
2022/10/30 04:28:03;;;;;;;16.23;7.90;;;;;;;8.59;85.79;96275.83;1716723;83;21043;-62
2022/10/30 04:30:35;;;;;;;18.37;7.70;;;;;;;8.62;85.84;96284.61;1712051;83;21045;-62
2022/10/30 04:33:05;;;;;;;17.70;7.87;;;;;;;8.62;85.82;96289.00;1706881;83;21531;-62
2022/10/30 04:35:36;;;;;;;20.33;8.17;;;;;;;8.64;85.58;96289.45;1700100;83;21029;-62
2022/10/30 04:38:06;;;;;;;15.93;7.97;;;;;;;8.68;85.71;96288.13;1716997;83;21038;-62
2022/10/30 04:40:37;;;;;;;22.03;11.40;;;;;;;8.72;85.86;96293.80;1702908;83;21077;-62
2022/10/30 04:43:07;;;;;;;21.77;12.83;;;;;;;8.79;85.83;96291.61;1716653;83;21046;-62
2022/10/30 04:45:34;;;;;;;24.23;13.37;;;;;;;8.85;85.41;96297.76;1712597;83;21124;-62
2022/10/30 04:48:04;;;;;;;19.63;12.67;;;;;;;8.75;84.86;96292.06;1705043;83;21148;-62
2022/10/30 04:50:33;;;;;;;20.67;12.57;;;;;;;8.65;85.09;96292.50;1713519;83;21160;-62
2022/10/30 04:53:03;;;;;;;19.33;12.20;;;;;;;8.60;85.49;96294.70;1706741;83;21035;-63
2022/10/30 04:55:31;;;;;;;21.87;13.30;;;;;;;8.65;85.85;96296.45;1713506;83;21088;-62
2022/10/30 04:58:01;;;;;;;18.67;12.17;;;;;;;8.70;85.68;96294.27;1702517;83;21034;-62
2022/10/30 05:00:30;;;;;;;22.33;12.73;;;;;;;8.67;85.51;96300.41;1706718;83;21029;-62
2022/10/30 05:03:00;;;;;;;19.67;12.03;;;;;;;8.63;85.60;96302.58;1713036;83;21018;-62
2022/10/30 05:05:28;;;;;;;19.53;12.10;;;;;;;8.57;86.02;96298.20;1711017;83;21544;-62
2022/10/30 05:07:56;;;;;;;18.63;11.43;;;;;;;8.52;85.88;96289.44;1712731;83;21021;-62
2022/10/30 05:10:23;;;;;;;18.77;11.63;;;;;;;8.43;86.51;96302.56;1707978;83;21046;-62
2022/10/30 05:12:58;;;;;;;63.73;42.07;;;;;;;8.33;86.61;96300.77;1711428;83;21086;-62
2022/10/30 05:15:21;;;;;;;48.37;37.47;;;;;;;8.26;87.12;96297.69;1675298;85;21081;-62
2022/10/30 05:17:52;;;;;;;37.17;27.20;;;;;;;8.14;87.84;96290.64;1716633;83;21050;-62
2022/10/30 05:20:20;;;;;;;44.27;26.97;;;;;;;7.95;89.58;96297.63;1700822;83;21085;-62
2022/10/30 05:22:56;;;;;;;34.27;21.37;;;;;;;7.91;89.71;96287.96;1712327;83;21496;-62
2022/10/30 05:25:24;;;;;;;43.03;25.50;;;;;;;7.88;89.93;96282.27;1707477;83;21042;-62
2022/10/30 05:28:00;;;;;;;41.33;24.30;;;;;;;7.93;89.33;96283.16;1717255;83;21014;-62
2022/10/30 05:30:30;;;;;;;36.67;18.70;;;;;;;8.01;89.51;96281.86;1713231;83;21073;-62
2022/10/30 05:33:00;;;;;;;37.07;18.53;;;;;;;8.12;89.45;96286.72;1710282;83;20997;-62
2022/10/30 05:35:29;;;;;;;29.20;16.03;;;;;;;8.26;89.41;96280.59;1711543;83;21191;-62
2022/10/30 05:37:55;;;;;;;24.63;12.90;;;;;;;8.36;89.14;96278.41;1711916;83;21018;-62
2022/10/30 05:40:22;;;;;;;31.43;18.07;;;;;;;8.45;88.96;96271.45;1706557;83;21647;-63
2022/10/30 05:42:50;;;;;;;25.43;14.20;;;;;;;8.51;88.73;96281.53;1710594;83;21595;-62
2022/10/30 05:45:17;;;;;;;27.50;14.80;;;;;;;8.55;88.31;96284.61;1702043;83;21033;-62
2022/10/30 05:48:04;;;;;;;22.93;14.13;;;;;;;8.60;88.51;96282.86;1712685;83;21081;-62
2022/10/30 05:50:33;;;;;;;25.93;14.90;;;;;;;8.70;88.06;96284.61;1722718;83;21532;-61
2022/10/30 05:53:05;;;;;;;20.77;11.93;;;;;;;8.75;88.04;96279.35;1701053;83;21066;-62
2022/10/30 05:55:32;;;;;;;20.40;11.60;;;;;;;8.81;87.88;96284.16;1711670;83;21077;-62
2022/10/30 05:58:13;;;;;;;21.27;12.60;;;;;;;8.93;87.87;96281.09;1718636;83;21026;-62
2022/10/30 06:00:43;;;;;;;17.80;11.13;;;;;;;8.98;87.34;96285.91;1712080;83;21043;-62
2022/10/30 06:03:12;;;;;;;15.43;9.70;;;;;;;9.03;87.27;96282.83;1707960;83;21030;-62
2022/10/30 06:05:45;;;;;;;12.80;7.00;;;;;;;9.12;87.08;96281.92;1706731;83;21036;-62
2022/10/30 06:08:15;;;;;;;10.03;7.53;;;;;;;9.20;86.59;96277.55;1702714;83;21014;-62
2022/10/30 06:10:42;;;;;;;13.97;10.77;;;;;;;9.18;86.08;96277.98;1712708;83;21479;-62
2022/10/30 06:13:16;;;;;;;13.97;10.67;;;;;;;9.25;86.54;96270.06;1705234;83;21146;-61
2022/10/30 06:15:55;;;;;;;14.13;11.13;;;;;;;9.34;86.06;96276.17;1659017;85;21045;-63
2022/10/30 06:18:23;;;;;;;13.87;10.00;;;;;;;9.33;85.14;96270.48;1687817;85;21070;-62
2022/10/30 06:20:54;;;;;;;11.23;7.80;;;;;;;9.39;85.65;96271.77;1711121;83;21556;-62
2022/10/30 06:23:39;;;;;;;8.97;7.50;;;;;;;9.38;84.38;96270.90;1707461;83;21058;-62
2022/10/30 06:26:17;;;;;;;8.93;6.50;;;;;;;9.34;84.48;96277.49;1696247;83;21042;-62
2022/10/30 06:28:45;;;;;;;7.33;6.03;;;;;;;9.36;84.85;96277.05;1700589;83;21564;-62
2022/10/30 06:31:13;;;;;;;8.93;7.60;;;;;;;9.42;84.51;96274.39;1710045;83;21557;-62
2022/10/30 06:33:40;;;;;;;9.13;7.80;;;;;;;9.44;84.15;96274.81;1700160;83;21117;-62
2022/10/30 06:36:08;;;;;;;11.77;10.30;;;;;;;9.52;84.41;96269.52;1708325;83;21081;-62
2022/10/30 06:38:34;;;;;;;17.50;12.40;;;;;;;9.49;83.77;96272.17;1705528;83;21109;-62
2022/10/30 06:41:01;;;;;;;13.13;11.20;;;;;;;9.42;83.46;96271.75;1706360;83;21097;-62
2022/10/30 06:43:32;;;;;;;16.82;12.45;;;;;;;9.46;84.29;96266.47;1716743;83;21093;-62
2022/10/30 06:46:05;;;;;;;17.17;12.27;;;;;;;9.53;84.48;96264.26;1715236;83;21014;-62
2022/10/30 06:48:33;;;;;;;20.80;14.65;;;;;;;9.52;84.13;96256.34;1709078;83;21041;-62
2022/10/30 06:51:01;;;;;;;31.73;20.97;;;;;;;9.51;84.13;96249.34;1724570;83;21018;-62
2022/10/30 06:53:30;;;;;;;19.87;14.47;;;;;;;9.47;84.04;96244.50;1707649;83;21120;-62
2022/10/30 06:56:04;;;;;;;111.80;68.37;;;;;;;9.46;84.22;96253.30;1718695;83;21077;-62
2022/10/30 06:58:38;;;;;;;44.33;36.27;;;;;;;9.45;84.59;96251.56;1717393;83;21061;-62
2022/10/30 07:01:06;;;;;;;12.53;10.20;;;;;;;9.30;85.25;96247.22;1714534;83;21064;-62
2022/10/30 07:03:44;;;;;;;10.73;8.30;;;;;;;9.17;85.16;96247.25;1716541;83;21049;-62
2022/10/30 07:06:11;;;;;;;11.57;7.42;;;;;;;9.08;85.75;96248.16;1709936;83;21500;-62
2022/10/30 07:08:38;;;;;;;10.40;7.80;;;;;;;9.15;85.60;96246.37;1713239;83;21006;-61
2022/10/30 07:11:05;;;;;;;15.50;12.50;;;;;;;9.22;85.38;96242.84;1710704;83;21033;-62
2022/10/30 07:13:43;;;;;;;9.60;8.23;;;;;;;9.27;85.87;96246.34;1678564;84;21125;-62
2022/10/30 07:16:14;;;;;;;12.00;9.13;;;;;;;9.27;86.58;96241.06;1704656;83;21007;-62
2022/10/30 07:18:42;;;;;;;14.33;11.03;;;;;;;9.35;86.61;96244.58;1711734;83;21532;-62
2022/10/30 07:21:09;;;;;;;20.40;18.10;;;;;;;9.45;86.62;96241.03;1713536;83;21586;-62
2022/10/30 07:23:36;;;;;;;15.20;12.60;;;;;;;9.51;86.59;96234.85;1716694;83;21073;-62
2022/10/30 07:26:24;;;;;;;14.75;11.65;;;;;;;9.55;86.45;96227.38;1675951;85;21050;-62
2022/10/30 07:28:52;;;;;;;11.85;9.28;;;;;;;9.62;86.22;96231.71;1673572;85;21046;-62
2022/10/30 07:31:21;;;;;;;11.43;8.68;;;;;;;9.61;85.84;96238.33;1679887;85;21027;-62
2022/10/30 07:33:48;;;;;;;9.80;8.18;;;;;;;9.61;86.04;96235.24;1683549;85;21034;-62
2022/10/30 07:36:16;;;;;;;9.80;7.67;;;;;;;9.67;86.25;96240.92;1645334;86;21054;-63
2022/10/30 07:38:49;;;;;;;8.95;6.90;;;;;;;9.72;86.12;96234.73;1712936;83;21136;-62
2022/10/30 07:41:23;;;;;;;9.43;6.47;;;;;;;9.72;85.94;96236.05;1699023;83;21101;-62
2022/10/30 07:43:51;;;;;;;7.60;6.53;;;;;;;9.77;85.89;96245.26;1718537;83;21579;-61
2022/10/30 07:46:29;;;;;;;9.68;6.37;;;;;;;9.79;85.66;96248.77;1716852;83;21061;-62
2022/10/30 07:49:01;;;;;;;22.55;17.12;;;;;;;9.85;85.81;96240.84;1712267;83;21050;-62
2022/10/30 07:51:29;;;;;;;15.85;12.98;;;;;;;9.96;85.78;96233.73;1700334;83;21528;-62
2022/10/30 07:53:56;;;;;;;10.32;9.05;;;;;;;10.07;85.44;96229.71;1707898;83;21124;-63
2022/10/30 07:56:24;;;;;;;9.25;7.37;;;;;;;10.17;85.50;96227.89;1712533;83;21061;-62
2022/10/30 07:58:54;;;;;;;8.75;7.25;;;;;;;10.24;84.89;96219.05;1710760;83;21076;-62
2022/10/30 08:01:32;;;;;;;7.33;6.42;;;;;;;10.30;84.53;96228.71;1706379;83;21571;-62
2022/10/30 08:04:01;;;;;;;8.40;7.25;;;;;;;10.40;84.63;96228.63;1705517;83;21101;-62
2022/10/30 08:06:28;;;;;;;10.65;7.85;;;;;;;10.46;84.39;96223.77;1718564;83;21077;-62
2022/10/30 08:08:56;;;;;;;9.73;7.33;;;;;;;10.49;83.74;96214.95;1706816;83;21017;-62
2022/10/30 08:11:24;;;;;;;8.60;7.15;;;;;;;10.51;83.65;96210.54;1709477;83;21535;-61
2022/10/30 08:13:52;;;;;;;8.40;7.12;;;;;;;10.58;83.38;96200.34;1714878;83;21022;-62
2022/10/30 08:16:19;;;;;;;8.98;7.80;;;;;;;10.71;84.09;96194.50;1702909;83;21066;-62
2022/10/30 08:18:46;;;;;;;8.93;7.25;;;;;;;10.84;83.29;96205.39;1711295;83;21105;-62
2022/10/30 08:21:13;;;;;;;8.48;7.42;;;;;;;10.85;83.47;96204.94;1714041;83;21084;-62
2022/10/30 08:23:42;;;;;;;9.18;7.80;;;;;;;10.95;83.11;96206.14;1714448;83;21116;-62
2022/10/30 08:26:10;;;;;;;9.73;8.00;;;;;;;11.02;82.59;96224.13;1700801;83;21034;-62
2022/10/30 08:28:37;;;;;;;9.00;7.33;;;;;;;10.98;82.13;96236.47;1706859;83;21090;-62
2022/10/30 08:31:05;;;;;;;9.15;8.23;;;;;;;10.91;82.16;96239.19;1704043;83;21073;-62
2022/10/30 08:33:37;;;;;;;10.38;8.08;;;;;;;10.88;82.38;96256.38;1711577;83;21047;-62
2022/10/30 08:36:08;;;;;;;8.43;7.37;;;;;;;10.85;82.66;96276.22;1710497;83;21545;-62
2022/10/30 08:38:35;;;;;;;7.67;6.83;;;;;;;10.83;82.46;96278.86;1711523;83;21042;-62
2022/10/30 08:41:10;;;;;;;8.38;7.03;;;;;;;10.82;82.30;96290.32;1720346;83;21030;-61
2022/10/30 08:43:39;;;;;;;10.18;7.90;;;;;;;10.68;81.70;96289.09;1707372;83;21108;-62
2022/10/30 08:46:06;;;;;;;10.40;7.65;;;;;;;10.66;82.31;96295.27;1705209;83;21053;-62
2022/10/30 08:48:33;;;;;;;12.93;9.65;;;;;;;10.61;82.83;96290.06;1706824;83;21120;-62
2022/10/30 08:51:00;;;;;;;9.30;7.05;;;;;;;10.68;83.26;96294.83;1723140;83;21174;-61
2022/10/30 08:53:28;;;;;;;8.60;6.80;;;;;;;10.82;83.67;96299.56;1706429;83;21042;-61
2022/10/30 08:55:55;;;;;;;8.43;6.72;;;;;;;10.94;83.63;96298.59;1717867;83;21003;-62
2022/10/30 08:58:24;;;;;;;8.83;6.95;;;;;;;11.07;83.80;96300.67;1716254;83;21166;-62
2022/10/30 09:00:51;;;;;;;9.28;7.40;;;;;;;11.16;83.45;96302.79;1708193;83;21067;-62
2022/10/30 09:03:18;;;;;;;10.82;8.18;;;;;;;11.18;82.89;96294.38;1717043;83;21003;-62
2022/10/30 09:05:58;;;;;;;9.93;7.70;;;;;;;11.15;82.92;96293.09;1652553;86;21122;-62
2022/10/30 09:08:45;;;;;;;11.22;8.38;;;;;;;11.12;83.26;96296.23;1700377;83;21041;-62
2022/10/30 09:11:13;;;;;;;12.35;8.58;;;;;;;11.12;83.00;96288.30;1707515;83;21129;-62
2022/10/30 09:13:41;;;;;;;11.00;8.75;;;;;;;11.04;83.07;96287.05;1709728;83;21042;-62
2022/10/30 09:16:08;;;;;;;11.22;7.90;;;;;;;11.01;83.35;96291.02;1713238;83;21496;-62
2022/10/30 09:18:36;;;;;;;10.08;7.95;;;;;;;11.04;83.39;96295.84;1720615;83;21576;-62
2022/10/30 09:21:03;;;;;;;10.90;8.18;;;;;;;11.14;83.57;96294.45;1703380;83;21054;-61
2022/10/30 09:23:31;;;;;;;9.50;7.83;;;;;;;11.14;82.90;96289.17;1723327;83;21539;-62
2022/10/30 09:26:00;;;;;;;10.28;8.05;;;;;;;11.07;82.93;96285.70;1722565;83;21499;-62
2022/10/30 09:28:38;;;;;;;11.60;8.33;;;;;;;11.11;83.02;96286.53;1712390;83;21035;-62
2022/10/30 09:31:23;;;;;;;13.18;9.20;;;;;;;11.16;83.15;96274.16;1710712;83;21581;-62
2022/10/30 09:33:49;;;;;;;15.58;10.18;;;;;;;11.30;83.45;96280.19;1712179;83;21069;-62
2022/10/30 09:36:27;;;;;;;11.30;8.88;;;;;;;11.40;82.82;96269.94;1628565;88;21068;-62
2022/10/30 09:38:57;;;;;;;12.33;9.60;;;;;;;11.47;82.61;96272.08;1713230;83;21576;-62
2022/10/30 09:41:52;;;;;;;13.03;9.18;;;;;;;11.53;81.99;96269.81;1716491;83;21152;-62
2022/10/30 09:44:47;;;;;;;11.50;8.35;;;;;;;11.58;82.20;96271.50;1721603;82;21082;-61
2022/10/30 09:47:42;;;;;;;12.75;8.90;;;;;;;11.68;82.34;96266.53;1701047;83;21034;-62
2022/10/30 09:50:33;;;;;;;11.95;8.68;;;;;;;11.80;81.89;96260.68;1700924;83;21090;-62
2022/10/30 09:53:27;;;;;;;11.28;8.48;;;;;;;11.82;81.50;96270.34;1706248;83;21081;-63
2022/10/30 09:56:09;;;;;;;11.45;9.50;;;;;;;11.96;81.23;96260.06;1706620;83;21045;-62
2022/10/30 09:59:19;;;;;;;10.00;8.38;;;;;;;11.96;80.27;96256.09;1707207;83;21032;-62
2022/10/30 10:01:50;;;;;;;11.43;8.48;;;;;;;11.90;80.16;96252.63;1700682;83;21583;-62
2022/10/30 10:04:41;;;;;;;11.83;9.08;;;;;;;11.90;80.05;96259.70;1705223;83;21528;-62
2022/10/30 10:07:50;;;;;;;10.95;8.25;;;;;;;12.03;80.84;96258.63;1707346;83;21038;-61
2022/10/30 10:10:47;;;;;;;10.32;8.43;;;;;;;12.19;80.21;96259.28;1679036;85;21060;-62
2022/10/30 10:14:03;;;;;;;11.85;8.30;;;;;;;12.30;79.53;96261.80;1712635;83;21121;-62
2022/10/30 10:16:35;;;;;;;10.13;7.97;;;;;;;12.55;80.07;96259.20;1720095;83;21085;-62
2022/10/30 10:19:22;;;;;;;10.30;8.13;;;;;;;13.29;78.12;96261.94;1711515;83;21512;-61
2022/10/30 10:21:58;;;;;;;9.98;7.83;;;;;;;13.76;76.24;96256.17;1697433;83;21141;-62
2022/10/30 10:24:32;;;;;;;9.63;7.22;;;;;;;14.11;75.60;96249.67;1712396;83;21568;-63
2022/10/30 10:27:17;;;;;;;9.98;7.75;;;;;;;14.08;72.99;96246.64;1715070;83;21093;-62
2022/10/30 10:30:19;;;;;;;9.70;8.03;;;;;;;13.89;72.24;96242.66;1716940;83;21105;-62
2022/10/30 10:33:27;;;;;;;9.60;7.83;;;;;;;14.01;73.50;96237.96;1711327;83;21025;-62
2022/10/30 10:36:11;;;;;;;10.68;8.25;;;;;;;14.01;73.50;96237.06;1656117;86;21078;-63
2022/10/30 10:38:57;;;;;;;11.30;8.33;;;;;;;14.01;73.50;96237.06;1658870;86;21067;-62
2022/10/30 10:41:53;;;;;;;9.63;7.37;;;;;;;13.99;73.38;96225.63;1693766;83;21540;-62
2022/10/30 10:44:38;;;;;;;10.32;8.30;;;;;;;14.07;73.42;96221.89;1711410;83;21508;-62
2022/10/30 10:47:31;;;;;;;9.60;8.00;;;;;;;14.45;72.27;96225.91;1686748;83;21049;-62
2022/10/30 10:50:24;;;;;;;8.68;7.78;;;;;;;14.69;72.02;96230.67;1703558;83;21025;-62
2022/10/30 10:53:02;;;;;;;13.08;9.08;;;;;;;15.10;70.18;96222.55;1711835;83;21078;-62
2022/10/30 10:55:35;;;;;;;11.75;8.55;;;;;;;15.51;68.85;96212.58;1706835;83;21081;-62
2022/10/30 10:58:22;;;;;;;;;;;;;;;16.11;68.77;96199.75;1711847;83;21082;-62
2022/10/30 11:00:50;;;;;;;10.53;8.08;;;;;;;16.72;66.56;96200.05;1705622;83;20277;-62
2022/10/30 11:03:33;;;;;;;10.90;8.95;;;;;;;17.02;65.09;96191.52;1712066;83;21049;-62
2022/10/30 11:06:20;;;;;;;14.05;8.95;;;;;;;17.22;64.61;96190.36;1708665;83;21041;-62
2022/10/30 11:08:47;;;;;;;9.75;8.73;;;;;;;17.65;63.18;96190.14;1715817;83;21069;-62
2022/10/30 11:11:14;;;;;;;10.72;8.08;;;;;;;17.92;61.71;96182.07;1697714;83;21544;-62
2022/10/30 11:13:43;;;;;;;10.13;8.70;;;;;;;17.82;60.18;96184.22;1711917;83;21074;-62
2022/10/30 11:16:21;;;;;;;10.23;9.23;;;;;;;17.84;60.42;96182.80;1711850;83;21515;-62
2022/10/30 11:18:53;;;;;;;12.75;8.75;;;;;;;18.04;60.39;96184.71;1717661;83;21563;-63
2022/10/30 11:21:23;;;;;;;10.00;9.00;;;;;;;18.41;60.13;96175.27;1709858;83;21054;-62
2022/10/30 11:23:52;;;;;;;10.63;8.88;;;;;;;18.85;58.87;96172.14;1706854;83;21031;-62
2022/10/30 11:26:24;;;;;;;9.98;8.95;;;;;;;19.22;56.59;96167.40;1705906;83;21112;-62
2022/10/30 11:29:04;;;;;;;10.15;8.68;;;;;;;19.37;56.47;96163.66;1711602;83;21073;-62
2022/10/30 11:31:39;;;;;;;10.18;8.35;;;;;;;19.29;56.56;96155.97;1711246;83;21093;-62
2022/10/30 11:34:26;;;;;;;10.03;8.88;;;;;;;18.95;56.23;96159.23;1715894;83;21053;-62
2022/10/30 11:36:54;;;;;;;11.00;8.90;;;;;;;18.52;56.76;96156.98;1722791;83;21599;-62
2022/10/30 11:39:28;;;;;;;9.58;8.50;;;;;;;17.84;57.78;96154.33;1712882;83;21046;-62
2022/10/30 11:42:05;;;;;;;11.75;9.03;;;;;;;17.93;59.20;96152.63;1706722;83;21049;-62
2022/10/30 11:44:42;;;;;;;9.73;8.83;;;;;;;18.32;59.60;96152.44;1724457;83;21535;-63
2022/10/30 11:47:13;;;;;;;12.10;8.18;;;;;;;18.92;58.05;96150.00;1709558;83;22011;-62
2022/10/30 11:49:45;;;;;;;10.18;8.60;;;;;;;19.48;56.73;96141.32;1700439;83;21110;-62
2022/10/30 11:52:16;;;;;;;10.65;9.03;;;;;;;19.99;54.64;96132.33;1716026;83;21148;-62
2022/10/30 11:54:54;;;;;;;9.38;8.38;;;;;;;20.07;52.54;96131.00;1713746;83;21547;-62
2022/10/30 11:57:32;;;;;;;9.18;8.30;;;;;;;20.38;53.46;96130.00;1713201;83;21108;-62